sensor_id;sensor_type;location;lat;lon;timestamp;temperature;humidity
61912;DHT22;49973;52.084;5.412;2023-08-06T00:00:53;15.80;99.90
61912;DHT22;49973;52.084;5.412;2023-08-06T00:03:22;15.80;99.90
61912;DHT22;49973;52.084;5.412;2023-08-06T00:05:51;15.90;99.90
61912;DHT22;49973;52.084;5.412;2023-08-06T00:08:20;15.80;99.90
61912;DHT22;49973;52.084;5.412;2023-08-06T00:10:49;15.80;99.90
61912;DHT22;49973;52.084;5.412;2023-08-06T00:13:19;15.90;99.90
61912;DHT22;49973;52.084;5.412;2023-08-06T00:15:48;15.80;99.90
61912;DHT22;49973;52.084;5.412;2023-08-06T00:18:17;15.80;99.90
61912;DHT22;49973;52.084;5.412;2023-08-06T00:20:46;15.80;99.90
61912;DHT22;49973;52.084;5.412;2023-08-06T00:23:14;15.80;99.90
61912;DHT22;49973;52.084;5.412;2023-08-06T00:25:43;15.80;99.90
61912;DHT22;49973;52.084;5.412;2023-08-06T00:28:12;15.80;99.90
61912;DHT22;49973;52.084;5.412;2023-08-06T00:30:42;15.80;99.90
61912;DHT22;49973;52.084;5.412;2023-08-06T00:33:11;15.90;99.90
61912;DHT22;49973;52.084;5.412;2023-08-06T00:35:39;15.90;99.90
61912;DHT22;49973;52.084;5.412;2023-08-06T00:38:08;15.90;99.90
61912;DHT22;49973;52.084;5.412;2023-08-06T00:40:37;15.90;99.90
61912;DHT22;49973;52.084;5.412;2023-08-06T00:43:06;15.90;99.90
61912;DHT22;49973;52.084;5.412;2023-08-06T00:45:36;15.90;99.90
61912;DHT22;49973;52.084;5.412;2023-08-06T00:48:06;15.90;99.90
61912;DHT22;49973;52.084;5.412;2023-08-06T00:50:35;16.00;99.90
61912;DHT22;49973;52.084;5.412;2023-08-06T00:53:04;15.90;99.90
61912;DHT22;49973;52.084;5.412;2023-08-06T00:55:33;15.90;99.90
61912;DHT22;49973;52.084;5.412;2023-08-06T00:58:02;16.10;99.90
61912;DHT22;49973;52.084;5.412;2023-08-06T01:00:31;15.90;99.90
61912;DHT22;49973;52.084;5.412;2023-08-06T01:03:00;15.90;99.90
61912;DHT22;49973;52.084;5.412;2023-08-06T01:05:31;15.90;99.90
61912;DHT22;49973;52.084;5.412;2023-08-06T01:08:15;15.90;99.90
61912;DHT22;49973;52.084;5.412;2023-08-06T01:10:59;15.90;99.90
61912;DHT22;49973;52.084;5.412;2023-08-06T01:13:46;15.90;99.90
61912;DHT22;49973;52.084;5.412;2023-08-06T01:16:20;15.90;99.90
61912;DHT22;49973;52.084;5.412;2023-08-06T01:18:49;15.90;99.90
61912;DHT22;49973;52.084;5.412;2023-08-06T01:21:19;15.90;99.90
61912;DHT22;49973;52.084;5.412;2023-08-06T01:23:48;15.90;99.90
61912;DHT22;49973;52.084;5.412;2023-08-06T01:26:24;15.90;99.90
61912;DHT22;49973;52.084;5.412;2023-08-06T01:28:59;15.90;99.90
61912;DHT22;49973;52.084;5.412;2023-08-06T01:31:36;15.90;99.90
61912;DHT22;49973;52.084;5.412;2023-08-06T01:34:09;15.90;99.90
61912;DHT22;49973;52.084;5.412;2023-08-06T01:36:40;15.90;99.90
61912;DHT22;49973;52.084;5.412;2023-08-06T01:39:09;15.90;99.90
61912;DHT22;49973;52.084;5.412;2023-08-06T01:41:38;15.90;99.90
61912;DHT22;49973;52.084;5.412;2023-08-06T01:44:06;16.00;99.90
61912;DHT22;49973;52.084;5.412;2023-08-06T01:46:35;15.90;99.90
61912;DHT22;49973;52.084;5.412;2023-08-06T01:49:04;15.90;99.90
61912;DHT22;49973;52.084;5.412;2023-08-06T01:51:32;16.00;99.90
61912;DHT22;49973;52.084;5.412;2023-08-06T01:54:03;15.90;99.90
61912;DHT22;49973;52.084;5.412;2023-08-06T01:56:31;15.90;99.90
61912;DHT22;49973;52.084;5.412;2023-08-06T01:59:00;15.90;99.90
61912;DHT22;49973;52.084;5.412;2023-08-06T02:01:31;15.90;99.90
61912;DHT22;49973;52.084;5.412;2023-08-06T02:04:00;15.80;99.90
61912;DHT22;49973;52.084;5.412;2023-08-06T02:06:29;15.90;99.90
61912;DHT22;49973;52.084;5.412;2023-08-06T02:08:57;15.80;99.90
61912;DHT22;49973;52.084;5.412;2023-08-06T02:11:28;15.80;99.90
61912;DHT22;49973;52.084;5.412;2023-08-06T02:13:56;15.90;99.90
61912;DHT22;49973;52.084;5.412;2023-08-06T02:16:25;15.80;99.90
61912;DHT22;49973;52.084;5.412;2023-08-06T02:18:54;15.80;99.90
61912;DHT22;49973;52.084;5.412;2023-08-06T02:21:22;15.70;99.90
61912;DHT22;49973;52.084;5.412;2023-08-06T02:23:51;15.70;99.90
61912;DHT22;49973;52.084;5.412;2023-08-06T02:26:20;15.70;99.90
61912;DHT22;49973;52.084;5.412;2023-08-06T02:28:50;15.60;99.90
61912;DHT22;49973;52.084;5.412;2023-08-06T02:31:19;15.70;99.90
61912;DHT22;49973;52.084;5.412;2023-08-06T02:33:48;15.70;99.90
61912;DHT22;49973;52.084;5.412;2023-08-06T02:36:17;15.70;99.90
61912;DHT22;49973;52.084;5.412;2023-08-06T02:38:46;15.70;99.90
61912;DHT22;49973;52.084;5.412;2023-08-06T02:41:15;15.70;99.90
61912;DHT22;49973;52.084;5.412;2023-08-06T02:43:43;15.60;99.90
61912;DHT22;49973;52.084;5.412;2023-08-06T02:46:14;15.60;99.90
61912;DHT22;49973;52.084;5.412;2023-08-06T02:48:43;15.60;99.90
61912;DHT22;49973;52.084;5.412;2023-08-06T02:51:13;15.60;99.90
61912;DHT22;49973;52.084;5.412;2023-08-06T02:53:42;15.60;99.90
61912;DHT22;49973;52.084;5.412;2023-08-06T02:56:13;15.60;99.90
61912;DHT22;49973;52.084;5.412;2023-08-06T02:59:02;15.60;99.90
61912;DHT22;49973;52.084;5.412;2023-08-06T03:01:55;15.60;99.90
61912;DHT22;49973;52.084;5.412;2023-08-06T03:04:32;15.70;99.90
61912;DHT22;49973;52.084;5.412;2023-08-06T03:07:01;15.60;99.90
61912;DHT22;49973;52.084;5.412;2023-08-06T03:09:38;15.60;99.90
61912;DHT22;49973;52.084;5.412;2023-08-06T03:12:08;15.60;99.90
61912;DHT22;49973;52.084;5.412;2023-08-06T03:14:38;15.60;99.90
61912;DHT22;49973;52.084;5.412;2023-08-06T03:17:09;15.70;99.90
61912;DHT22;49973;52.084;5.412;2023-08-06T03:19:38;15.70;99.90
61912;DHT22;49973;52.084;5.412;2023-08-06T03:22:07;15.70;99.90
61912;DHT22;49973;52.084;5.412;2023-08-06T03:24:37;15.70;99.90
61912;DHT22;49973;52.084;5.412;2023-08-06T03:27:08;15.70;99.90
61912;DHT22;49973;52.084;5.412;2023-08-06T03:29:39;15.70;99.90
61912;DHT22;49973;52.084;5.412;2023-08-06T03:32:09;15.70;99.90
61912;DHT22;49973;52.084;5.412;2023-08-06T03:34:40;15.70;99.90
61912;DHT22;49973;52.084;5.412;2023-08-06T03:37:09;15.70;99.90
61912;DHT22;49973;52.084;5.412;2023-08-06T03:39:38;15.70;99.90
61912;DHT22;49973;52.084;5.412;2023-08-06T03:42:07;15.70;99.90
61912;DHT22;49973;52.084;5.412;2023-08-06T03:44:35;16.00;99.90
61912;DHT22;49973;52.084;5.412;2023-08-06T03:47:06;15.70;99.90
61912;DHT22;49973;52.084;5.412;2023-08-06T03:49:37;15.70;99.90
61912;DHT22;49973;52.084;5.412;2023-08-06T03:52:07;15.80;99.90
61912;DHT22;49973;52.084;5.412;2023-08-06T03:54:36;15.70;99.90
61912;DHT22;49973;52.084;5.412;2023-08-06T03:57:05;15.70;99.90
61912;DHT22;49973;52.084;5.412;2023-08-06T03:59:34;15.70;99.90
61912;DHT22;49973;52.084;5.412;2023-08-06T04:02:03;15.70;99.90
61912;DHT22;49973;52.084;5.412;2023-08-06T04:04:32;15.70;99.90
61912;DHT22;49973;52.084;5.412;2023-08-06T04:07:03;15.80;99.90
61912;DHT22;49973;52.084;5.412;2023-08-06T04:09:31;15.70;99.90
61912;DHT22;49973;52.084;5.412;2023-08-06T04:12:00;15.70;99.90
61912;DHT22;49973;52.084;5.412;2023-08-06T04:14:30;15.90;99.90
61912;DHT22;49973;52.084;5.412;2023-08-06T04:16:59;15.70;99.90
61912;DHT22;49973;52.084;5.412;2023-08-06T04:19:28;15.90;99.90
61912;DHT22;49973;52.084;5.412;2023-08-06T04:21:56;15.70;99.90
61912;DHT22;49973;52.084;5.412;2023-08-06T04:24:26;15.70;99.90
61912;DHT22;49973;52.084;5.412;2023-08-06T04:26:55;15.70;99.90
61912;DHT22;49973;52.084;5.412;2023-08-06T04:29:25;15.70;99.90
61912;DHT22;49973;52.084;5.412;2023-08-06T04:31:54;15.70;99.90
61912;DHT22;49973;52.084;5.412;2023-08-06T04:34:23;15.70;99.90
61912;DHT22;49973;52.084;5.412;2023-08-06T04:36:52;15.70;99.90
61912;DHT22;49973;52.084;5.412;2023-08-06T04:39:21;15.70;99.90
61912;DHT22;49973;52.084;5.412;2023-08-06T04:41:51;15.70;99.90
61912;DHT22;49973;52.084;5.412;2023-08-06T04:44:21;15.70;99.90
61912;DHT22;49973;52.084;5.412;2023-08-06T04:46:50;15.80;99.90
61912;DHT22;49973;52.084;5.412;2023-08-06T04:49:19;15.70;99.90
61912;DHT22;49973;52.084;5.412;2023-08-06T04:51:48;15.70;99.90
61912;DHT22;49973;52.084;5.412;2023-08-06T04:54:17;15.80;99.90
61912;DHT22;49973;52.084;5.412;2023-08-06T04:56:46;15.80;99.90
61912;DHT22;49973;52.084;5.412;2023-08-06T04:59:16;15.80;99.90
61912;DHT22;49973;52.084;5.412;2023-08-06T05:01:45;15.80;99.90
61912;DHT22;49973;52.084;5.412;2023-08-06T05:04:14;15.80;99.90
61912;DHT22;49973;52.084;5.412;2023-08-06T05:06:42;15.80;99.90
61912;DHT22;49973;52.084;5.412;2023-08-06T05:09:11;15.80;99.90
61912;DHT22;49973;52.084;5.412;2023-08-06T05:11:40;15.80;99.90
61912;DHT22;49973;52.084;5.412;2023-08-06T05:14:09;15.80;99.90
61912;DHT22;49973;52.084;5.412;2023-08-06T05:16:39;15.80;99.90
61912;DHT22;49973;52.084;5.412;2023-08-06T05:19:08;15.90;99.90
61912;DHT22;49973;52.084;5.412;2023-08-06T05:21:37;15.80;99.90
61912;DHT22;49973;52.084;5.412;2023-08-06T05:24:05;15.80;99.90
61912;DHT22;49973;52.084;5.412;2023-08-06T05:26:34;15.80;99.90
61912;DHT22;49973;52.084;5.412;2023-08-06T05:29:03;15.80;99.90
61912;DHT22;49973;52.084;5.412;2023-08-06T05:31:31;15.80;99.90
61912;DHT22;49973;52.084;5.412;2023-08-06T05:34:02;15.80;99.90
61912;DHT22;49973;52.084;5.412;2023-08-06T05:36:30;15.80;99.90
61912;DHT22;49973;52.084;5.412;2023-08-06T05:38:59;15.90;99.90
61912;DHT22;49973;52.084;5.412;2023-08-06T05:41:28;15.90;99.90
61912;DHT22;49973;52.084;5.412;2023-08-06T05:43:56;15.90;99.90
61912;DHT22;49973;52.084;5.412;2023-08-06T05:46:28;16.00;99.90
61912;DHT22;49973;52.084;5.412;2023-08-06T05:48:57;16.00;99.90
61912;DHT22;49973;52.084;5.412;2023-08-06T05:51:27;15.90;99.90
61912;DHT22;49973;52.084;5.412;2023-08-06T05:53:56;16.00;99.90
61912;DHT22;49973;52.084;5.412;2023-08-06T05:56:25;15.90;99.90
61912;DHT22;49973;52.084;5.412;2023-08-06T05:58:53;15.90;99.90
61912;DHT22;49973;52.084;5.412;2023-08-06T06:01:22;15.90;99.90
61912;DHT22;49973;52.084;5.412;2023-08-06T06:03:51;15.90;99.90
61912;DHT22;49973;52.084;5.412;2023-08-06T06:06:19;15.90;99.90
61912;DHT22;49973;52.084;5.412;2023-08-06T06:08:50;16.00;99.90
61912;DHT22;49973;52.084;5.412;2023-08-06T06:11:18;16.00;99.90
61912;DHT22;49973;52.084;5.412;2023-08-06T06:13:50;16.00;99.90
61912;DHT22;49973;52.084;5.412;2023-08-06T06:16:19;16.00;99.90
61912;DHT22;49973;52.084;5.412;2023-08-06T06:18:48;16.00;99.90
61912;DHT22;49973;52.084;5.412;2023-08-06T06:21:17;16.00;99.90
61912;DHT22;49973;52.084;5.412;2023-08-06T06:23:45;16.00;99.90
61912;DHT22;49973;52.084;5.412;2023-08-06T06:26:15;16.00;99.90
61912;DHT22;49973;52.084;5.412;2023-08-06T06:28:44;16.10;99.90
61912;DHT22;49973;52.084;5.412;2023-08-06T06:31:13;16.10;99.90
61912;DHT22;49973;52.084;5.412;2023-08-06T06:33:41;16.10;99.90
61912;DHT22;49973;52.084;5.412;2023-08-06T06:36:10;16.10;99.90
61912;DHT22;49973;52.084;5.412;2023-08-06T06:38:40;16.10;99.90
61912;DHT22;49973;52.084;5.412;2023-08-06T06:41:08;16.10;99.90
61912;DHT22;49973;52.084;5.412;2023-08-06T06:43:38;16.00;99.90
61912;DHT22;49973;52.084;5.412;2023-08-06T06:46:07;16.10;99.90
61912;DHT22;49973;52.084;5.412;2023-08-06T06:48:36;16.10;99.90
61912;DHT22;49973;52.084;5.412;2023-08-06T06:51:05;16.10;99.90
61912;DHT22;49973;52.084;5.412;2023-08-06T06:53:34;16.00;99.90
61912;DHT22;49973;52.084;5.412;2023-08-06T06:56:04;16.20;99.90
61912;DHT22;49973;52.084;5.412;2023-08-06T06:58:33;16.10;99.90
61912;DHT22;49973;52.084;5.412;2023-08-06T07:01:03;16.10;99.90
61912;DHT22;49973;52.084;5.412;2023-08-06T07:03:32;16.10;99.90
61912;DHT22;49973;52.084;5.412;2023-08-06T07:06:01;16.10;99.90
61912;DHT22;49973;52.084;5.412;2023-08-06T07:08:31;16.10;99.90
61912;DHT22;49973;52.084;5.412;2023-08-06T07:11:01;16.10;99.90
61912;DHT22;49973;52.084;5.412;2023-08-06T07:13:30;16.20;99.90
61912;DHT22;49973;52.084;5.412;2023-08-06T07:15:59;16.20;99.90
61912;DHT22;49973;52.084;5.412;2023-08-06T07:18:29;16.20;99.90
61912;DHT22;49973;52.084;5.412;2023-08-06T07:20:58;16.20;99.90
61912;DHT22;49973;52.084;5.412;2023-08-06T07:23:27;16.20;99.90
61912;DHT22;49973;52.084;5.412;2023-08-06T07:25:55;16.20;99.90
61912;DHT22;49973;52.084;5.412;2023-08-06T07:28:24;16.20;99.90
61912;DHT22;49973;52.084;5.412;2023-08-06T07:30:53;16.20;99.90
61912;DHT22;49973;52.084;5.412;2023-08-06T07:33:22;16.20;99.90
61912;DHT22;49973;52.084;5.412;2023-08-06T07:35:52;16.20;99.90
61912;DHT22;49973;52.084;5.412;2023-08-06T07:38:20;16.10;99.90
61912;DHT22;49973;52.084;5.412;2023-08-06T07:40:49;16.10;99.90
61912;DHT22;49973;52.084;5.412;2023-08-06T07:43:18;16.10;99.90
61912;DHT22;49973;52.084;5.412;2023-08-06T07:45:47;16.10;99.90
61912;DHT22;49973;52.084;5.412;2023-08-06T07:48:15;16.10;99.90
61912;DHT22;49973;52.084;5.412;2023-08-06T07:50:44;16.10;99.90
61912;DHT22;49973;52.084;5.412;2023-08-06T07:53:19;16.00;99.90
61912;DHT22;49973;52.084;5.412;2023-08-06T07:55:50;15.90;99.90
61912;DHT22;49973;52.084;5.412;2023-08-06T07:58:20;15.90;99.90
61912;DHT22;49973;52.084;5.412;2023-08-06T08:00:49;15.80;99.90
61912;DHT22;49973;52.084;5.412;2023-08-06T08:03:17;15.70;99.90
61912;DHT22;49973;52.084;5.412;2023-08-06T08:05:47;15.60;99.90
61912;DHT22;49973;52.084;5.412;2023-08-06T08:08:16;15.60;99.90
61912;DHT22;49973;52.084;5.412;2023-08-06T08:10:46;15.50;99.90
61912;DHT22;49973;52.084;5.412;2023-08-06T08:13:15;15.40;99.90
61912;DHT22;49973;52.084;5.412;2023-08-06T08:15:44;15.50;99.90
61912;DHT22;49973;52.084;5.412;2023-08-06T08:18:12;15.40;99.90
61912;DHT22;49973;52.084;5.412;2023-08-06T08:20:41;15.30;99.90
61912;DHT22;49973;52.084;5.412;2023-08-06T08:23:10;15.30;99.90
61912;DHT22;49973;52.084;5.412;2023-08-06T08:25:41;15.20;99.90
61912;DHT22;49973;52.084;5.412;2023-08-06T08:28:11;15.20;99.90
61912;DHT22;49973;52.084;5.412;2023-08-06T08:30:40;15.10;99.90
61912;DHT22;49973;52.084;5.412;2023-08-06T08:33:09;15.00;99.90
61912;DHT22;49973;52.084;5.412;2023-08-06T08:35:38;15.00;99.90
61912;DHT22;49973;52.084;5.412;2023-08-06T08:38:08;14.90;99.90
61912;DHT22;49973;52.084;5.412;2023-08-06T08:40:41;14.90;99.90
61912;DHT22;49973;52.084;5.412;2023-08-06T08:43:15;14.90;99.90
61912;DHT22;49973;52.084;5.412;2023-08-06T08:45:46;14.90;99.90
61912;DHT22;49973;52.084;5.412;2023-08-06T08:48:18;14.90;99.90
61912;DHT22;49973;52.084;5.412;2023-08-06T08:50:50;14.80;99.90
61912;DHT22;49973;52.084;5.412;2023-08-06T08:53:19;14.80;99.90
61912;DHT22;49973;52.084;5.412;2023-08-06T08:55:49;14.90;99.90
61912;DHT22;49973;52.084;5.412;2023-08-06T08:58:19;14.90;99.90
61912;DHT22;49973;52.084;5.412;2023-08-06T09:00:48;14.90;99.90
61912;DHT22;49973;52.084;5.412;2023-08-06T09:03:19;14.90;99.90
61912;DHT22;49973;52.084;5.412;2023-08-06T09:05:50;14.90;99.90
61912;DHT22;49973;52.084;5.412;2023-08-06T09:08:29;14.90;99.90
61912;DHT22;49973;52.084;5.412;2023-08-06T09:11:00;14.90;99.90
61912;DHT22;49973;52.084;5.412;2023-08-06T09:13:31;14.90;99.90
61912;DHT22;49973;52.084;5.412;2023-08-06T09:16:00;15.00;99.90
61912;DHT22;49973;52.084;5.412;2023-08-06T09:18:29;15.00;99.90
61912;DHT22;49973;52.084;5.412;2023-08-06T09:20:58;15.00;99.90
61912;DHT22;49973;52.084;5.412;2023-08-06T09:23:28;15.00;99.90
61912;DHT22;49973;52.084;5.412;2023-08-06T09:25:58;15.10;99.90
61912;DHT22;49973;52.084;5.412;2023-08-06T09:28:36;15.10;99.90
61912;DHT22;49973;52.084;5.412;2023-08-06T09:31:07;15.10;99.90
61912;DHT22;49973;52.084;5.412;2023-08-06T09:33:37;15.10;99.90
61912;DHT22;49973;52.084;5.412;2023-08-06T09:36:10;15.10;99.90
61912;DHT22;49973;52.084;5.412;2023-08-06T09:38:39;15.10;99.90
61912;DHT22;49973;52.084;5.412;2023-08-06T09:41:08;15.20;99.90
61912;DHT22;49973;52.084;5.412;2023-08-06T09:43:42;15.20;99.90
61912;DHT22;49973;52.084;5.412;2023-08-06T09:46:12;15.30;99.90
61912;DHT22;49973;52.084;5.412;2023-08-06T09:48:45;15.30;99.90
61912;DHT22;49973;52.084;5.412;2023-08-06T09:51:14;15.50;99.90
61912;DHT22;49973;52.084;5.412;2023-08-06T09:53:44;15.40;99.90
61912;DHT22;49973;52.084;5.412;2023-08-06T09:56:15;15.60;99.90
61912;DHT22;49973;52.084;5.412;2023-08-06T09:58:49;15.50;99.90
61912;DHT22;49973;52.084;5.412;2023-08-06T10:01:19;15.50;99.90
61912;DHT22;49973;52.084;5.412;2023-08-06T10:03:49;15.50;99.90
61912;DHT22;49973;52.084;5.412;2023-08-06T10:06:20;15.50;99.90
61912;DHT22;49973;52.084;5.412;2023-08-06T10:08:50;15.50;99.90
61912;DHT22;49973;52.084;5.412;2023-08-06T10:11:21;15.60;99.90
61912;DHT22;49973;52.084;5.412;2023-08-06T10:13:55;15.60;99.90
61912;DHT22;49973;52.084;5.412;2023-08-06T10:16:26;15.60;99.90
61912;DHT22;49973;52.084;5.412;2023-08-06T10:18:56;15.60;99.90
61912;DHT22;49973;52.084;5.412;2023-08-06T10:21:25;15.70;99.90
61912;DHT22;49973;52.084;5.412;2023-08-06T10:23:57;15.70;99.90
61912;DHT22;49973;52.084;5.412;2023-08-06T10:26:27;15.70;99.90
61912;DHT22;49973;52.084;5.412;2023-08-06T10:28:57;15.70;99.90
61912;DHT22;49973;52.084;5.412;2023-08-06T10:31:54;15.60;99.90
61912;DHT22;49973;52.084;5.412;2023-08-06T10:34:23;15.70;99.90
61912;DHT22;49973;52.084;5.412;2023-08-06T10:36:54;15.70;99.90
61912;DHT22;49973;52.084;5.412;2023-08-06T10:39:24;15.70;99.90
61912;DHT22;49973;52.084;5.412;2023-08-06T10:41:57;15.70;99.90
61912;DHT22;49973;52.084;5.412;2023-08-06T10:44:28;15.70;99.90
61912;DHT22;49973;52.084;5.412;2023-08-06T10:47:26;15.60;99.90
61912;DHT22;49973;52.084;5.412;2023-08-06T10:49:55;15.60;99.90
61912;DHT22;49973;52.084;5.412;2023-08-06T10:52:23;15.60;99.90
61912;DHT22;49973;52.084;5.412;2023-08-06T10:54:54;15.60;99.90
61912;DHT22;49973;52.084;5.412;2023-08-06T10:57:24;15.70;99.90
61912;DHT22;49973;52.084;5.412;2023-08-06T10:59:54;15.70;99.90
61912;DHT22;49973;52.084;5.412;2023-08-06T11:02:42;15.80;99.90
61912;DHT22;49973;52.084;5.412;2023-08-06T11:05:12;15.80;99.90
61912;DHT22;49973;52.084;5.412;2023-08-06T11:07:41;15.80;99.90
61912;DHT22;49973;52.084;5.412;2023-08-06T11:10:11;15.80;99.90
61912;DHT22;49973;52.084;5.412;2023-08-06T11:12:40;15.80;99.90
61912;DHT22;49973;52.084;5.412;2023-08-06T11:15:10;15.80;99.90
61912;DHT22;49973;52.084;5.412;2023-08-06T11:17:41;15.80;99.90
61912;DHT22;49973;52.084;5.412;2023-08-06T11:20:10;15.80;99.90
61912;DHT22;49973;52.084;5.412;2023-08-06T11:22:42;15.70;99.90
61912;DHT22;49973;52.084;5.412;2023-08-06T11:25:11;15.70;99.90
61912;DHT22;49973;52.084;5.412;2023-08-06T11:27:40;15.70;99.90
61912;DHT22;49973;52.084;5.412;2023-08-06T11:30:12;15.60;99.90
61912;DHT22;49973;52.084;5.412;2023-08-06T11:32:50;15.70;99.90
61912;DHT22;49973;52.084;5.412;2023-08-06T11:35:18;15.60;99.90
61912;DHT22;49973;52.084;5.412;2023-08-06T11:37:48;15.60;99.90
61912;DHT22;49973;52.084;5.412;2023-08-06T11:40:17;15.60;99.90
61912;DHT22;49973;52.084;5.412;2023-08-06T11:42:46;15.60;99.90
61912;DHT22;49973;52.084;5.412;2023-08-06T11:45:21;15.60;99.90
61912;DHT22;49973;52.084;5.412;2023-08-06T11:47:50;15.60;99.90
61912;DHT22;49973;52.084;5.412;2023-08-06T11:50:24;15.70;99.90
61912;DHT22;49973;52.084;5.412;2023-08-06T11:52:54;15.70;99.90
61912;DHT22;49973;52.084;5.412;2023-08-06T11:55:24;15.60;99.90
61912;DHT22;49973;52.084;5.412;2023-08-06T11:57:53;15.60;99.90
61912;DHT22;49973;52.084;5.412;2023-08-06T12:00:24;15.50;99.90
61912;DHT22;49973;52.084;5.412;2023-08-06T12:02:54;15.50;99.90
61912;DHT22;49973;52.084;5.412;2023-08-06T12:05:24;15.40;99.90
61912;DHT22;49973;52.084;5.412;2023-08-06T12:07:54;15.30;99.90
61912;DHT22;49973;52.084;5.412;2023-08-06T12:10:26;15.30;99.90
61912;DHT22;49973;52.084;5.412;2023-08-06T12:12:55;15.20;99.90
61912;DHT22;49973;52.084;5.412;2023-08-06T12:15:26;15.20;99.90
61912;DHT22;49973;52.084;5.412;2023-08-06T12:17:56;15.20;99.90
61912;DHT22;49973;52.084;5.412;2023-08-06T12:20:25;15.20;99.90
61912;DHT22;49973;52.084;5.412;2023-08-06T12:22:54;15.20;99.90
61912;DHT22;49973;52.084;5.412;2023-08-06T12:25:23;15.30;99.90
61912;DHT22;49973;52.084;5.412;2023-08-06T12:27:51;15.30;99.90
61912;DHT22;49973;52.084;5.412;2023-08-06T12:30:20;15.30;99.90
61912;DHT22;49973;52.084;5.412;2023-08-06T12:32:51;15.40;99.90
61912;DHT22;49973;52.084;5.412;2023-08-06T12:35:20;15.30;99.90
61912;DHT22;49973;52.084;5.412;2023-08-06T12:37:48;15.30;99.90
61912;DHT22;49973;52.084;5.412;2023-08-06T12:40:19;15.40;99.90
61912;DHT22;49973;52.084;5.412;2023-08-06T12:43:02;15.50;99.90
61912;DHT22;49973;52.084;5.412;2023-08-06T12:45:31;15.50;99.90
61912;DHT22;49973;52.084;5.412;2023-08-06T12:48:03;15.50;99.90
61912;DHT22;49973;52.084;5.412;2023-08-06T12:50:32;15.50;99.90
61912;DHT22;49973;52.084;5.412;2023-08-06T12:53:02;15.50;99.90
61912;DHT22;49973;52.084;5.412;2023-08-06T12:55:32;15.50;99.90
61912;DHT22;49973;52.084;5.412;2023-08-06T12:58:01;15.50;99.90
61912;DHT22;49973;52.084;5.412;2023-08-06T13:00:30;15.60;99.90
61912;DHT22;49973;52.084;5.412;2023-08-06T13:02:58;15.60;99.90
61912;DHT22;49973;52.084;5.412;2023-08-06T13:05:29;15.60;99.90
61912;DHT22;49973;52.084;5.412;2023-08-06T13:07:57;15.60;99.90
61912;DHT22;49973;52.084;5.412;2023-08-06T13:10:26;15.50;99.90
61912;DHT22;49973;52.084;5.412;2023-08-06T13:12:56;15.60;99.90
61912;DHT22;49973;52.084;5.412;2023-08-06T13:15:25;15.60;99.90
61912;DHT22;49973;52.084;5.412;2023-08-06T13:17:53;15.70;99.90
61912;DHT22;49973;52.084;5.412;2023-08-06T13:20:22;15.70;99.90
61912;DHT22;49973;52.084;5.412;2023-08-06T13:22:52;15.70;99.90
61912;DHT22;49973;52.084;5.412;2023-08-06T13:25:21;15.70;99.90
61912;DHT22;49973;52.084;5.412;2023-08-06T13:27:50;15.80;99.90
61912;DHT22;49973;52.084;5.412;2023-08-06T13:30:19;15.80;99.90
61912;DHT22;49973;52.084;5.412;2023-08-06T13:32:48;15.80;99.90
61912;DHT22;49973;52.084;5.412;2023-08-06T13:35:17;15.90;99.90
61912;DHT22;49973;52.084;5.412;2023-08-06T13:37:45;15.90;99.90
61912;DHT22;49973;52.084;5.412;2023-08-06T13:40:16;15.90;99.90
61912;DHT22;49973;52.084;5.412;2023-08-06T13:42:46;15.90;99.90
61912;DHT22;49973;52.084;5.412;2023-08-06T13:45:15;15.90;99.90
61912;DHT22;49973;52.084;5.412;2023-08-06T13:47:44;15.90;99.90
61912;DHT22;49973;52.084;5.412;2023-08-06T13:50:13;16.00;99.90
61912;DHT22;49973;52.084;5.412;2023-08-06T13:52:42;16.00;99.90
61912;DHT22;49973;52.084;5.412;2023-08-06T13:55:11;16.00;99.90
61912;DHT22;49973;52.084;5.412;2023-08-06T13:57:41;16.00;99.90
61912;DHT22;49973;52.084;5.412;2023-08-06T14:00:11;16.10;99.90
61912;DHT22;49973;52.084;5.412;2023-08-06T14:02:40;16.10;99.90
61912;DHT22;49973;52.084;5.412;2023-08-06T14:05:11;16.10;99.90
61912;DHT22;49973;52.084;5.412;2023-08-06T14:07:40;16.10;99.90
61912;DHT22;49973;52.084;5.412;2023-08-06T14:10:09;16.10;99.90
61912;DHT22;49973;52.084;5.412;2023-08-06T14:12:37;16.20;99.90
61912;DHT22;49973;52.084;5.412;2023-08-06T14:15:09;16.30;99.90
61912;DHT22;49973;52.084;5.412;2023-08-06T14:17:38;16.30;99.90
61912;DHT22;49973;52.084;5.412;2023-08-06T14:20:08;16.30;99.90
61912;DHT22;49973;52.084;5.412;2023-08-06T14:22:39;16.30;99.90
61912;DHT22;49973;52.084;5.412;2023-08-06T14:25:08;16.40;99.90
61912;DHT22;49973;52.084;5.412;2023-08-06T14:27:37;16.40;99.90
61912;DHT22;49973;52.084;5.412;2023-08-06T14:30:09;16.40;99.90
61912;DHT22;49973;52.084;5.412;2023-08-06T14:32:38;16.40;99.90
61912;DHT22;49973;52.084;5.412;2023-08-06T14:35:07;16.50;99.90
61912;DHT22;49973;52.084;5.412;2023-08-06T14:37:36;16.50;99.90
61912;DHT22;49973;52.084;5.412;2023-08-06T14:40:07;16.50;99.90
61912;DHT22;49973;52.084;5.412;2023-08-06T14:42:36;16.50;99.90
61912;DHT22;49973;52.084;5.412;2023-08-06T14:45:06;16.50;99.90
61912;DHT22;49973;52.084;5.412;2023-08-06T14:47:36;16.50;99.90
61912;DHT22;49973;52.084;5.412;2023-08-06T14:50:06;16.50;99.90
61912;DHT22;49973;52.084;5.412;2023-08-06T14:52:35;16.50;99.90
61912;DHT22;49973;52.084;5.412;2023-08-06T14:55:05;16.50;99.90
61912;DHT22;49973;52.084;5.412;2023-08-06T14:57:34;16.50;99.90
61912;DHT22;49973;52.084;5.412;2023-08-06T15:00:03;16.50;99.90
61912;DHT22;49973;52.084;5.412;2023-08-06T15:02:35;16.50;99.90
61912;DHT22;49973;52.084;5.412;2023-08-06T15:05:05;16.60;99.90
61912;DHT22;49973;52.084;5.412;2023-08-06T15:07:34;16.60;99.90
61912;DHT22;49973;52.084;5.412;2023-08-06T15:10:04;16.60;99.90
61912;DHT22;49973;52.084;5.412;2023-08-06T15:12:53;16.70;99.90
61912;DHT22;49973;52.084;5.412;2023-08-06T15:15:22;16.70;99.90
61912;DHT22;49973;52.084;5.412;2023-08-06T15:17:52;16.70;99.90
61912;DHT22;49973;52.084;5.412;2023-08-06T15:20:22;16.90;99.90
61912;DHT22;49973;52.084;5.412;2023-08-06T15:22:51;16.70;99.90
61912;DHT22;49973;52.084;5.412;2023-08-06T15:25:20;16.60;99.90
61912;DHT22;49973;52.084;5.412;2023-08-06T15:27:49;16.60;99.90
61912;DHT22;49973;52.084;5.412;2023-08-06T15:30:18;16.50;99.90
61912;DHT22;49973;52.084;5.412;2023-08-06T15:32:47;16.30;99.90
61912;DHT22;49973;52.084;5.412;2023-08-06T15:35:18;16.20;99.90
61912;DHT22;49973;52.084;5.412;2023-08-06T15:37:46;16.20;99.90
61912;DHT22;49973;52.084;5.412;2023-08-06T15:40:15;16.10;99.90
61912;DHT22;49973;52.084;5.412;2023-08-06T15:42:44;16.10;99.90
61912;DHT22;49973;52.084;5.412;2023-08-06T15:45:14;16.10;99.90
61912;DHT22;49973;52.084;5.412;2023-08-06T15:47:42;16.10;99.90